首页
METAR-TAF:

METAR-TAF

机场 :

萨格勒布机场

萨格勒布, 克罗地亚

纬度: 45-44N, 经度: 016-04E, 海拔: 106米

当前天气观测

该预报发布于20分钟前的19:30 UTC
风速2节,风向东转东南
温度 0°C
湿度 93%
气压 1026 hPa
能見度: 5000
阴天层高于400英尺
(小) 冻, 毛毛雨, 轻雾

METAR: LDZA 171930Z 12002KT 5000 -FZDZ BR OVC004 M00/M01 Q1026 NOSIG

时间: 20:50 (19:50 UTC)

预报

该预报发布于2小时和25分钟前的17:25 UTC
预报有效从17日的 18点(UTC)到 18日的 18点(UTC)
风速4节,风向
能見度: 4000
阴天层高于400英尺
轻雾
短暂存在
从 17日的 18点(UTC)到 18日的 10点(UTC)
能見度: 1000
阴天层高于200英尺
(小) 冻, 毛毛雨, 轻雾
成为
从 18日的 09点(UTC)到 18日的 11点(UTC)
能見度: 6000
阴天层高于1000英尺
短暂存在
从 18日的 16点(UTC)到 18日的 18点(UTC)
能見度: 2000
阴天层高于500英尺
小雪

TAF: LDZA 171725Z 1718/1818 10004KT 4000 BR OVC004 TX01/1813Z TNM03/1805Z TEMPO 1718/1810 1000 -FZDZ BR OVC002 BECMG 1809/1811 6000 NSW OVC010 TEMPO 1816/1818 2000 -SN OVC005

超过4000个机场的气象观测和天气预报(METAR&TAF报告)。

可查询的气象台以黄色和红色小点在地图上表示。

将鼠标移到小点上方,可查看气象台名称。

然后点击查看天气观测和预报。

如需切换地图:点击带黑十字的绿色按钮放大地图;点击带横线的绿色按钮缩小地图;或者点击绿色箭头查看邻近地区的地图。


METAR-TAF: